KPPA

Perry Lefors Field Airport

Pampa, Texas, USA
METAR KPPA 231435Z AUTO 11010KT 10SM CLR 24/15 A3008 RMK AO2 T02370152
Observed Flight Rules
May-23 @ 14:35 UTC (35 minutes ago) Visual Flight Rules
Wind Visibility Clouds
110° at 10 knots 10 miles
  • Clear skies
Temperatures Readings
Current 24°C / 75°F
Dewpoint 15°C / 59°F
Humidity 57%
Altimeter 30.08" Hg
Pressure 1019 hPa
Elevation 989
METAR KPPA 231435Z AUTO 11010KT 10SM CLR 24/15 A3008 RMK AO2 T02370152
Observed Flight Rules
May-23 @ 14:35 UTC
(35 minutes ago)
VFR
Wind Visibility
110° at 10 knots 10 miles
Clouds
  • Clear skies
Temperature Dewpoint
24°C / 75°F 15°C / 59°F
Humidity Altimeter Pressure
57% 30.08" Hg 1019 hPa